Time;durP1;ratioP1;P1;durP2;ratioP2;P2;SDS_P1;SDS_P2;PMS_P1;PMS_P2;Temp;Humidity;BMP_temperature;BMP_pressure;BME280_temperature;BME280_humidity;BME280_pressure;Samples;Min_cycle;Max_cycle;Signal;HPM_P1;HPM_P2
2022/07/03 00:02:23;;;;;;;5.03;4.57;;;;;;;;;;4988943;28;20022;-64
2022/07/03 00:04:48;;;;;;;6.35;4.60;;;;;;;;;;4988359;28;20476;-63
2022/07/03 00:07:13;;;;;;;4.90;4.50;;;;;;;;;;4988895;28;20022;-63
2022/07/03 00:09:38;;;;;;;5.05;4.65;;;;;;;;;;4989334;28;20073;-64
2022/07/03 00:12:04;;;;;;;4.82;4.43;;;;;;;;;;4989165;28;20448;-63
2022/07/03 00:14:29;;;;;;;4.68;4.38;;;;;;;;;;5002002;28;20033;-64
2022/07/03 00:16:54;;;;;;;4.60;4.30;;;;;;;;;;4988081;28;20058;-63
2022/07/03 00:19:20;;;;;;;4.18;3.88;;;;;;;;;;4989882;28;20034;-64
2022/07/03 00:21:47;;;;;;;5.05;4.63;;;;;;;;;;4990819;28;20026;-63
2022/07/03 00:24:23;;;;;;;5.15;4.50;;;;;;;;;;4988580;28;20412;-63
2022/07/03 00:26:51;;;;;;;5.35;4.80;;;;;;;;;;4987177;28;20488;-64
2022/07/03 00:29:17;;;;;;;4.65;4.32;;;;;;;;;;4987951;28;20438;-63
2022/07/03 00:31:42;;;;;;;5.35;4.85;;;;;;;;;;4988882;28;20030;-64
2022/07/03 00:34:08;;;;;;;4.50;4.13;;;;;;;;;;4989100;28;20366;-64
2022/07/03 00:36:37;;;;;;;4.38;4.03;;;;;;;;;;5002719;28;20439;-63
2022/07/03 00:39:02;;;;;;;5.45;5.00;;;;;;;;;;4988311;28;20068;-64
2022/07/03 00:41:29;;;;;;;5.20;4.80;;;;;;;;;;4989307;28;20472;-64
2022/07/03 00:43:55;;;;;;;5.45;5.05;;;;;;;;;;4989707;28;20423;-63
2022/07/03 00:46:21;;;;;;;4.90;4.60;;;;;;;;;;4989174;28;20026;-64
2022/07/03 00:48:48;;;;;;;5.35;4.95;;;;;;;;;;4987534;28;20457;-64
2022/07/03 00:51:14;;;;;;;5.18;4.78;;;;;;;;;;4988290;28;20022;-63
2022/07/03 00:53:41;;;;;;;4.53;4.15;;;;;;;;;;4987923;28;20076;-63
2022/07/03 00:56:08;;;;;;;5.57;4.95;;;;;;;;;;5002616;28;20018;-63
2022/07/03 00:58:34;;;;;;;8.07;4.55;;;;;;;;;;4988487;28;20084;-64
2022/07/03 01:00:59;;;;;;;5.05;4.65;;;;;;;;;;4989863;28;20447;-65
2022/07/03 01:03:26;;;;;;;5.40;5.00;;;;;;;;;;4987673;28;20401;-65
2022/07/03 01:05:53;;;;;;;5.47;4.97;;;;;;;;;;4988997;28;20516;-64
2022/07/03 01:08:41;;;;;;;5.68;5.18;;;;;;;;;;5002062;28;20030;-64
2022/07/03 01:11:36;;;;;;;4.97;4.50;;;;;;;;;;4985718;28;20468;-65
2022/07/03 01:14:27;;;;;;;5.10;4.70;;;;;;;;;;4972108;28;20365;-64
2022/07/03 01:16:58;;;;;;;4.90;4.50;;;;;;;;;;4988716;28;20116;-64
2022/07/03 01:19:43;;;;;;;4.82;4.43;;;;;;;;;;4986742;28;20041;-64
2022/07/03 01:22:08;;;;;;;7.07;5.22;;;;;;;;;;4984968;28;20033;-65
2022/07/03 01:24:39;;;;;;;4.90;4.60;;;;;;;;;;4986017;28;20034;-65
2022/07/03 01:27:07;;;;;;;6.10;5.00;;;;;;;;;;4988026;28;20044;-64
2022/07/03 01:29:38;;;;;;;6.35;5.07;;;;;;;;;;4987521;28;20118;-64
2022/07/03 01:32:03;;;;;;;4.63;4.32;;;;;;;;;;4987586;28;20026;-65
2022/07/03 01:34:33;;;;;;;5.32;4.80;;;;;;;;;;4986951;28;20594;-64
2022/07/03 01:37:00;;;;;;;5.38;5.00;;;;;;;;;;4986350;28;20026;-65
2022/07/03 01:39:26;;;;;;;5.05;4.72;;;;;;;;;;4990309;28;20018;-65
2022/07/03 01:41:53;;;;;;;5.28;4.88;;;;;;;;;;4985996;28;20099;-64
2022/07/03 01:44:18;;;;;;;5.18;4.78;;;;;;;;;;4984744;28;20460;-65
2022/07/03 01:46:45;;;;;;;5.90;5.40;;;;;;;;;;4985264;28;20037;-64
2022/07/03 01:49:12;;;;;;;5.80;5.40;;;;;;;;;;4988232;28;20457;-64
2022/07/03 01:51:38;;;;;;;5.32;4.82;;;;;;;;;;4987678;28;20378;-64
2022/07/03 01:54:04;;;;;;;4.95;4.55;;;;;;;;;;4986017;28;20033;-65
2022/07/03 01:56:31;;;;;;;5.57;5.15;;;;;;;;;;4984631;28;20034;-64
2022/07/03 01:58:58;;;;;;;6.75;5.03;;;;;;;;;;4986717;28;20030;-65
2022/07/03 02:01:42;;;;;;;5.78;5.18;;;;;;;;;;4991427;28;20030;-64
2022/07/03 02:04:10;;;;;;;5.20;4.80;;;;;;;;;;4991978;28;20397;-64
2022/07/03 02:06:43;;;;;;;5.60;5.10;;;;;;;;;;4991295;28;20135;-64
2022/07/03 02:09:10;;;;;;;5.40;4.90;;;;;;;;;;4988633;28;20064;-64
2022/07/03 02:11:37;;;;;;;5.38;4.97;;;;;;;;;;4988975;28;20510;-64
2022/07/03 02:14:14;;;;;;;5.07;4.70;;;;;;;;;;4990418;28;20119;-64
2022/07/03 02:16:51;;;;;;;5.00;4.63;;;;;;;;;;4991779;28;20018;-64
2022/07/03 02:19:17;;;;;;;5.95;5.45;;;;;;;;;;4991678;28;20100;-64
2022/07/03 02:21:52;;;;;;;7.13;6.47;;;;;;;;;;4992549;28;20476;-64
2022/07/03 02:24:17;;;;;;;6.32;5.80;;;;;;;;;;4989792;28;20034;-64
2022/07/03 02:26:45;;;;;;;6.55;5.53;;;;;;;;;;4990266;28;20334;-65
2022/07/03 02:29:15;;;;;;;5.78;5.38;;;;;;;;;;4992006;28;20407;-64
2022/07/03 02:31:43;;;;;;;5.75;5.15;;;;;;;;;;4993339;28;20031;-63
2022/07/03 02:34:13;;;;;;;5.57;5.18;;;;;;;;;;5006515;28;20030;-64
2022/07/03 02:36:40;;;;;;;5.95;5.05;;;;;;;;;;4988972;28;20053;-65
2022/07/03 02:39:08;;;;;;;6.10;5.60;;;;;;;;;;4991166;28;20037;-65
2022/07/03 02:41:39;;;;;;;5.80;5.40;;;;;;;;;;4990325;28;20590;-64
2022/07/03 02:44:10;;;;;;;5.78;5.28;;;;;;;;;;4990767;28;20116;-64
2022/07/03 02:46:51;;;;;;;5.53;5.07;;;;;;;;;;4990406;28;20053;-64
2022/07/03 02:49:19;;;;;;;5.35;4.95;;;;;;;;;;4990826;28;20507;-64
2022/07/03 02:51:48;;;;;;;5.35;4.95;;;;;;;;;;4991702;28;20026;-64
2022/07/03 02:54:14;;;;;;;5.85;5.32;;;;;;;;;;4990734;28;20159;-64
2022/07/03 02:56:58;;;;;;;5.78;5.28;;;;;;;;;;4990547;28;20062;-64
2022/07/03 02:59:41;;;;;;;5.90;5.10;;;;;;;;;;4991558;28;20018;-64
2022/07/03 03:02:10;;;;;;;6.38;5.88;;;;;;;;;;4990474;28;20035;-64
2022/07/03 03:04:39;;;;;;;5.40;5.00;;;;;;;;;;4990882;28;20026;-64
2022/07/03 03:07:04;;;;;;;5.82;5.22;;;;;;;;;;4993727;28;20037;-64
2022/07/03 03:09:39;;;;;;;5.45;5.05;;;;;;;;;;4993385;28;20050;-64
2022/07/03 03:12:05;;;;;;;5.68;5.18;;;;;;;;;;4992758;28;20505;-64
2022/07/03 03:14:38;;;;;;;6.03;5.50;;;;;;;;;;4993963;28;20457;-66
2022/07/03 03:17:05;;;;;;;6.60;6.10;;;;;;;;;;4993857;28;20120;-64
2022/07/03 03:19:35;;;;;;;5.80;5.40;;;;;;;;;;5009453;28;20441;-64
2022/07/03 03:22:00;;;;;;;7.05;6.43;;;;;;;;;;4993747;28;20403;-64
2022/07/03 03:24:26;;;;;;;6.80;6.20;;;;;;;;;;4991192;28;20064;-64
2022/07/03 03:26:51;;;;;;;7.00;5.85;;;;;;;;;;4990951;28;20022;-64
2022/07/03 03:29:17;;;;;;;6.50;6.00;;;;;;;;;;4988402;28;20165;-64
2022/07/03 03:31:42;;;;;;;6.45;5.85;;;;;;;;;;4989946;28;20087;-64
2022/07/03 03:34:08;;;;;;;6.22;5.63;;;;;;;;;;4989149;28;20029;-63
2022/07/03 03:36:33;;;;;;;6.70;6.10;;;;;;;;;;4989611;28;20488;-64
2022/07/03 03:38:59;;;;;;;6.32;5.82;;;;;;;;;;4990436;28;20026;-64
2022/07/03 03:41:24;;;;;;;8.63;5.93;;;;;;;;;;4990800;28;20033;-64
2022/07/03 03:43:49;;;;;;;7.45;6.75;;;;;;;;;;4988829;28;20066;-64
2022/07/03 03:46:15;;;;;;;6.72;6.10;;;;;;;;;;4988168;28;20030;-64
2022/07/03 03:48:41;;;;;;;6.93;6.43;;;;;;;;;;4987232;28;20049;-64
2022/07/03 03:51:07;;;;;;;6.97;6.38;;;;;;;;;;4991196;28;20593;-64
2022/07/03 03:53:32;;;;;;;8.40;5.97;;;;;;;;;;4990493;28;20524;-64
2022/07/03 03:56:02;;;;;;;6.38;5.88;;;;;;;;;;4988284;28;20034;-65
2022/07/03 03:58:31;;;;;;;5.90;5.40;;;;;;;;;;4990493;28;20080;-65
2022/07/03 04:00:57;;;;;;;5.57;5.13;;;;;;;;;;4988890;28;20037;-65
2022/07/03 04:03:22;;;;;;;6.35;5.75;;;;;;;;;;4987049;28;20042;-65
2022/07/03 04:05:47;;;;;;;5.93;5.43;;;;;;;;;;4986824;28;20089;-65
2022/07/03 04:08:13;;;;;;;6.47;5.85;;;;;;;;;;5000940;28;20030;-65
2022/07/03 04:10:38;;;;;;;6.20;5.60;;;;;;;;;;4988733;28;20121;-65
2022/07/03 04:13:03;;;;;;;6.22;5.72;;;;;;;;;;4987066;28;20053;-65
2022/07/03 04:15:28;;;;;;;6.43;5.90;;;;;;;;;;4988264;28;20054;-65
2022/07/03 04:17:54;;;;;;;6.22;5.72;;;;;;;;;;4986005;28;20141;-65
2022/07/03 04:20:19;;;;;;;6.22;5.72;;;;;;;;;;4987490;28;20133;-65
2022/07/03 04:22:45;;;;;;;5.65;5.18;;;;;;;;;;4988468;28;20045;-65
2022/07/03 04:25:11;;;;;;;6.15;5.68;;;;;;;;;;4987753;28;20428;-65
2022/07/03 04:27:36;;;;;;;5.93;5.32;;;;;;;;;;4988211;28;20089;-65
2022/07/03 04:30:01;;;;;;;5.82;5.38;;;;;;;;;;4988962;28;20121;-66
2022/07/03 04:32:26;;;;;;;5.88;5.38;;;;;;;;;;4987157;28;20034;-66
2022/07/03 04:34:52;;;;;;;6.07;5.40;;;;;;;;;;4987186;28;20034;-66
2022/07/03 04:37:17;;;;;;;5.95;5.40;;;;;;;;;;5002483;28;20037;-66
2022/07/03 04:39:42;;;;;;;7.18;5.78;;;;;;;;;;4988935;28;20030;-66
2022/07/03 04:42:07;;;;;;;5.55;5.05;;;;;;;;;;4989926;28;20027;-66
2022/07/03 04:44:32;;;;;;;5.88;5.47;;;;;;;;;;4986613;28;20041;-66
2022/07/03 04:46:58;;;;;;;6.88;5.15;;;;;;;;;;4986576;28;20084;-64
2022/07/03 04:49:23;;;;;;;6.53;6.03;;;;;;;;;;4985344;28;20380;-64
2022/07/03 04:51:48;;;;;;;5.78;5.38;;;;;;;;;;4986661;28;20033;-65
2022/07/03 04:54:13;;;;;;;5.53;5.13;;;;;;;;;;4987187;28;20590;-65
2022/07/03 04:56:39;;;;;;;6.38;5.75;;;;;;;;;;4988289;28;20437;-65
2022/07/03 04:59:04;;;;;;;6.47;5.88;;;;;;;;;;4987891;28;20030;-66
2022/07/03 05:01:29;;;;;;;6.68;6.18;;;;;;;;;;4982819;28;20077;-66
2022/07/03 05:03:54;;;;;;;6.13;5.72;;;;;;;;;;4986071;28;20084;-66
2022/07/03 05:06:20;;;;;;;6.32;5.82;;;;;;;;;;4986983;28;20033;-66
2022/07/03 05:08:45;;;;;;;5.85;5.43;;;;;;;;;;4988062;28;20489;-65
2022/07/03 05:11:10;;;;;;;6.13;5.63;;;;;;;;;;4985727;28;20065;-66
2022/07/03 05:13:36;;;;;;;6.18;5.78;;;;;;;;;;4985529;28;20030;-66
2022/07/03 05:16:01;;;;;;;6.90;6.32;;;;;;;;;;4989428;28;20018;-65
2022/07/03 05:18:26;;;;;;;6.22;5.82;;;;;;;;;;4988102;28;20042;-64
2022/07/03 05:20:52;;;;;;;5.75;5.35;;;;;;;;;;4988573;28;20037;-66
2022/07/03 05:23:17;;;;;;;7.55;6.85;;;;;;;;;;4988654;28;20607;-65
2022/07/03 05:25:42;;;;;;;7.00;6.40;;;;;;;;;;4987935;28;20022;-65
2022/07/03 05:28:08;;;;;;;7.18;6.38;;;;;;;;;;4987371;28;20030;-65
2022/07/03 05:30:33;;;;;;;6.72;6.13;;;;;;;;;;4984431;28;20045;-64
2022/07/03 05:32:59;;;;;;;7.38;6.85;;;;;;;;;;4986354;28;20038;-65
2022/07/03 05:35:24;;;;;;;7.28;6.60;;;;;;;;;;4987104;28;20113;-65
2022/07/03 05:37:50;;;;;;;10.43;7.13;;;;;;;;;;4987999;28;20579;-65
2022/07/03 05:40:15;;;;;;;8.20;7.47;;;;;;;;;;4985453;28;20046;-65
2022/07/03 05:42:40;;;;;;;6.45;5.95;;;;;;;;;;4987395;28;20092;-66
2022/07/03 05:45:06;;;;;;;7.18;6.68;;;;;;;;;;4986796;28;20026;-64
2022/07/03 05:47:31;;;;;;;6.80;6.25;;;;;;;;;;4986536;28;20026;-64
2022/07/03 05:49:56;;;;;;;8.85;8.05;;;;;;;;;;4987129;28;20137;-65
2022/07/03 05:52:22;;;;;;;7.75;7.15;;;;;;;;;;4986828;28;20069;-65
2022/07/03 05:54:48;;;;;;;7.63;6.90;;;;;;;;;;4985334;28;20026;-65
2022/07/03 05:57:13;;;;;;;7.65;6.97;;;;;;;;;;4985960;28;20031;-63
2022/07/03 05:59:38;;;;;;;7.78;7.07;;;;;;;;;;4989757;28;20835;-65
2022/07/03 06:02:04;;;;;;;7.15;6.47;;;;;;;;;;4987834;28;20030;-65
2022/07/03 06:04:29;;;;;;;8.13;7.00;;;;;;;;;;4991244;28;20030;-64
2022/07/03 06:06:57;;;;;;;7.25;6.65;;;;;;;;;;4986866;28;20087;-65
2022/07/03 06:09:22;;;;;;;8.07;7.47;;;;;;;;;;4985594;28;20131;-65
2022/07/03 06:11:48;;;;;;;7.72;7.05;;;;;;;;;;4984786;28;20046;-65
2022/07/03 06:14:13;;;;;;;7.05;6.45;;;;;;;;;;4986944;28;20041;-65
2022/07/03 06:16:39;;;;;;;6.57;6.07;;;;;;;;;;4988257;28;20092;-66
2022/07/03 06:19:04;;;;;;;6.72;6.13;;;;;;;;;;4987575;28;20044;-64
2022/07/03 06:21:29;;;;;;;6.45;5.95;;;;;;;;;;4985128;28;20046;-66
2022/07/03 06:23:54;;;;;;;7.80;7.13;;;;;;;;;;4985337;28;20279;-65
2022/07/03 06:26:20;;;;;;;6.72;6.15;;;;;;;;;;4986379;28;20034;-66
2022/07/03 06:28:45;;;;;;;6.60;6.13;;;;;;;;;;4986837;28;20615;-66
2022/07/03 06:31:11;;;;;;;6.15;5.75;;;;;;;;;;4985468;28;20071;-66
2022/07/03 06:33:36;;;;;;;6.40;5.88;;;;;;;;;;4986445;28;20388;-65
2022/07/03 06:36:01;;;;;;;6.75;6.13;;;;;;;;;;4987156;28;20101;-67
2022/07/03 06:38:27;;;;;;;6.40;5.80;;;;;;;;;;4987836;28;20034;-66
2022/07/03 06:40:52;;;;;;;5.90;5.45;;;;;;;;;;4988213;28;20493;-65
2022/07/03 06:43:17;;;;;;;7.35;6.82;;;;;;;;;;4988558;28;20022;-65
2022/07/03 06:45:42;;;;;;;6.75;6.25;;;;;;;;;;4987887;28;20038;-65
2022/07/03 06:48:08;;;;;;;6.22;5.72;;;;;;;;;;4989731;28;20427;-65
2022/07/03 06:50:33;;;;;;;6.05;5.55;;;;;;;;;;4990668;28;20469;-65
2022/07/03 06:52:58;;;;;;;6.65;5.80;;;;;;;;;;4988867;28;20111;-65
2022/07/03 06:55:23;;;;;;;6.28;5.78;;;;;;;;;;4987885;28;20100;-65
2022/07/03 06:57:49;;;;;;;6.25;5.68;;;;;;;;;;4990342;28;20092;-65
2022/07/03 07:00:14;;;;;;;6.65;6.15;;;;;;;;;;4989794;28;20396;-64
2022/07/03 07:02:39;;;;;;;6.88;6.28;;;;;;;;;;4991649;28;20069;-64
2022/07/03 07:05:05;;;;;;;6.32;5.82;;;;;;;;;;4992640;28;20150;-65
2022/07/03 07:07:31;;;;;;;7.38;6.18;;;;;;;;;;4988984;28;20081;-65
2022/07/03 07:09:56;;;;;;;6.25;5.78;;;;;;;;;;4990593;28;20062;-65
2022/07/03 07:12:23;;;;;;;6.40;5.78;;;;;;;;;;4992054;28;20081;-65
2022/07/03 07:14:49;;;;;;;6.82;5.63;;;;;;;;;;4991749;28;20640;-66
2022/07/03 07:17:15;;;;;;;6.28;5.78;;;;;;;;;;4989694;28;20469;-65
2022/07/03 07:19:40;;;;;;;9.57;6.63;;;;;;;;;;4990394;28;20034;-65
2022/07/03 07:22:05;;;;;;;7.15;6.57;;;;;;;;;;4989245;28;20061;-65
2022/07/03 07:24:30;;;;;;;6.50;6.00;;;;;;;;;;4989959;28;20033;-65
2022/07/03 07:26:55;;;;;;;5.20;4.90;;;;;;;;;;4988498;28;20114;-65
2022/07/03 07:29:21;;;;;;;5.50;5.10;;;;;;;;;;4988258;28;20425;-65
2022/07/03 07:31:46;;;;;;;5.07;4.70;;;;;;;;;;4989913;28;20033;-65
2022/07/03 07:34:11;;;;;;;4.80;4.40;;;;;;;;;;4989508;28;20031;-64
2022/07/03 07:36:36;;;;;;;5.32;4.93;;;;;;;;;;4990612;28;20057;-64
2022/07/03 07:39:02;;;;;;;5.10;4.70;;;;;;;;;;4989089;28;20057;-65
2022/07/03 07:41:27;;;;;;;5.30;4.88;;;;;;;;;;4991382;28;20037;-66
2022/07/03 07:43:52;;;;;;;5.55;5.15;;;;;;;;;;4989959;28;20026;-64
2022/07/03 07:46:18;;;;;;;7.30;5.57;;;;;;;;;;4987617;28;20026;-65
2022/07/03 07:48:44;;;;;;;5.63;5.25;;;;;;;;;;4989271;28;20124;-65
2022/07/03 07:51:10;;;;;;;5.93;5.43;;;;;;;;;;4990615;28;20062;-65
2022/07/03 07:53:35;;;;;;;6.03;5.50;;;;;;;;;;4990289;28;20216;-65
2022/07/03 07:56:00;;;;;;;5.75;5.35;;;;;;;;;;4990573;28;20049;-64
2022/07/03 07:58:25;;;;;;;6.45;5.90;;;;;;;;;;4988492;28;20030;-67
2022/07/03 08:06:18;;;;;;;8.68;7.32;;;;;;;;;;4990139;28;20588;-66
2022/07/03 08:08:44;;;;;;;6.80;6.30;;;;;;;;;;4990068;28;20450;-66
2022/07/03 08:11:09;;;;;;;6.50;6.10;;;;;;;;;;4990866;28;20038;-65
2022/07/03 08:13:34;;;;;;;6.13;5.63;;;;;;;;;;4988063;28;20022;-66
2022/07/03 08:16:00;;;;;;;6.85;6.35;;;;;;;;;;4990147;28;20057;-66
2022/07/03 08:18:25;;;;;;;6.53;6.07;;;;;;;;;;4990099;28;20532;-66
2022/07/03 08:20:50;;;;;;;6.95;5.93;;;;;;;;;;4987822;28;20034;-66
2022/07/03 08:23:16;;;;;;;6.45;5.95;;;;;;;;;;4988888;28;20080;-65
2022/07/03 08:25:41;;;;;;;6.78;6.18;;;;;;;;;;4987991;28;20125;-65
2022/07/03 08:28:06;;;;;;;10.40;9.55;;;;;;;;;;4987960;28;20372;-65
2022/07/03 08:30:32;;;;;;;7.85;7.35;;;;;;;;;;4986943;28;20057;-66
2022/07/03 08:32:58;;;;;;;6.60;6.10;;;;;;;;;;4989237;28;20068;-65
2022/07/03 08:35:23;;;;;;;6.38;5.88;;;;;;;;;;4987555;28;20121;-66
2022/07/03 08:37:49;;;;;;;7.35;6.05;;;;;;;;;;4989575;28;20461;-65
2022/07/03 08:40:15;;;;;;;6.32;5.78;;;;;;;;;;4988318;28;20030;-65
2022/07/03 08:42:46;;;;;;;6.72;6.22;;;;;;;;;;4987286;28;20113;-65
2022/07/03 08:45:18;;;;;;;7.85;7.07;;;;;;;;;;5001650;28;20022;-65
2022/07/03 08:47:44;;;;;;;6.70;6.10;;;;;;;;;;4987445;28;20053;-65
2022/07/03 08:50:10;;;;;;;6.47;6.07;;;;;;;;;;4986167;28;20477;-65
2022/07/03 08:52:36;;;;;;;6.40;5.88;;;;;;;;;;4988616;28;20031;-65
2022/07/03 08:55:02;;;;;;;6.40;6.00;;;;;;;;;;4987789;28;20043;-65
2022/07/03 08:57:30;;;;;;;6.63;6.13;;;;;;;;;;4979871;28;20027;-65
2022/07/03 08:59:56;;;;;;;6.35;5.68;;;;;;;;;;4988796;28;20436;-65
2022/07/03 09:02:22;;;;;;;6.70;5.53;;;;;;;;;;4982638;28;20612;-65
2022/07/03 09:04:48;;;;;;;6.15;5.65;;;;;;;;;;4989077;28;20114;-66
2022/07/03 09:07:14;;;;;;;5.95;5.50;;;;;;;;;;4987166;28;20048;-65
2022/07/03 09:09:39;;;;;;;6.72;6.13;;;;;;;;;;5001165;28;20063;-64
2022/07/03 09:12:05;;;;;;;5.90;5.50;;;;;;;;;;4986349;28;20492;-65
2022/07/03 09:14:30;;;;;;;7.53;7.03;;;;;;;;;;4988495;28;20808;-65
2022/07/03 09:16:55;;;;;;;6.40;5.90;;;;;;;;;;4989455;28;20033;-65
2022/07/03 09:19:41;;;;;;;6.18;5.60;;;;;;;;;;4986878;28;20053;-65
2022/07/03 09:22:16;;;;;;;10.77;6.53;;;;;;;;;;4987636;28;20060;-65
2022/07/03 09:24:41;;;;;;;6.78;6.28;;;;;;;;;;4987628;28;20022;-64
2022/07/03 09:27:10;;;;;;;6.63;6.20;;;;;;;;;;4987696;28;20465;-65
2022/07/03 09:29:35;;;;;;;5.88;5.38;;;;;;;;;;4989041;28;20022;-66
2022/07/03 09:32:00;;;;;;;6.50;6.00;;;;;;;;;;4986751;28;20038;-65
2022/07/03 09:34:26;;;;;;;7.07;6.50;;;;;;;;;;4987908;28;20030;-65
2022/07/03 09:36:52;;;;;;;6.05;5.65;;;;;;;;;;4986770;28;20524;-66
2022/07/03 09:39:29;;;;;;;6.65;6.25;;;;;;;;;;4987085;28;20466;-65
2022/07/03 09:42:00;;;;;;;5.97;5.50;;;;;;;;;;4986721;28;20031;-66
2022/07/03 09:44:33;;;;;;;6.05;5.65;;;;;;;;;;4986990;28;20049;-65
2022/07/03 09:47:12;;;;;;;6.63;6.05;;;;;;;;;;4987170;28;20037;-66
2022/07/03 09:49:54;;;;;;;6.35;5.95;;;;;;;;;;4988159;28;20408;-66
2022/07/03 09:52:29;;;;;;;7.10;6.60;;;;;;;;;;4987651;28;20053;-66
2022/07/03 09:54:56;;;;;;;5.70;5.40;;;;;;;;;;4987795;28;20026;-65
2022/07/03 09:57:22;;;;;;;7.38;6.78;;;;;;;;;;4986926;28;20472;-66
2022/07/03 09:59:48;;;;;;;6.60;6.20;;;;;;;;;;4987936;28;20022;-66
2022/07/03 10:02:13;;;;;;;6.55;6.15;;;;;;;;;;5003179;28;20092;-66
2022/07/03 10:04:38;;;;;;;11.18;6.53;;;;;;;;;;4987138;28;20061;-65
2022/07/03 10:07:03;;;;;;;6.63;6.22;;;;;;;;;;4987899;28;20033;-66
2022/07/03 10:09:30;;;;;;;6.25;5.75;;;;;;;;;;4988441;28;20058;-65
2022/07/03 10:11:56;;;;;;;6.28;5.72;;;;;;;;;;4988889;28;20026;-66
2022/07/03 10:14:23;;;;;;;5.82;5.47;;;;;;;;;;4988394;28;20033;-65
2022/07/03 10:16:48;;;;;;;7.03;6.53;;;;;;;;;;4987378;28;20109;-65
2022/07/03 10:19:19;;;;;;;6.88;6.32;;;;;;;;;;4988439;28;20404;-65
2022/07/03 10:21:47;;;;;;;6.47;5.97;;;;;;;;;;4990422;28;20044;-66
2022/07/03 10:24:12;;;;;;;5.60;5.20;;;;;;;;;;4990485;28;20092;-66
2022/07/03 10:26:38;;;;;;;6.00;5.50;;;;;;;;;;4991585;28;20030;-66
2022/07/03 10:29:04;;;;;;;5.53;5.13;;;;;;;;;;4991859;28;20026;-65
2022/07/03 10:31:31;;;;;;;6.40;6.10;;;;;;;;;;4990914;28;20097;-65
2022/07/03 10:33:57;;;;;;;5.65;5.25;;;;;;;;;;4991767;28;20030;-65
2022/07/03 10:36:22;;;;;;;6.53;6.15;;;;;;;;;;4991894;28;20223;-65
2022/07/03 10:38:48;;;;;;;6.40;6.03;;;;;;;;;;4989952;28;20057;-65
2022/07/03 10:47:26;;;;;;;5.37;5.00;;;;;;;;;;4991663;28;20528;-65
2022/07/03 10:50:02;;;;;;;5.28;4.88;;;;;;;;;;4991285;28;20026;-65
2022/07/03 10:52:27;;;;;;;5.63;5.30;;;;;;;;;;4991867;28;20031;-65
2022/07/03 10:54:56;;;;;;;5.65;5.35;;;;;;;;;;4989803;28;20033;-66
2022/07/03 10:57:21;;;;;;;5.22;4.88;;;;;;;;;;4990958;28;20027;-66
2022/07/03 10:59:47;;;;;;;6.13;5.75;;;;;;;;;;4991006;28;20033;-67
2022/07/03 11:02:22;;;;;;;6.68;6.03;;;;;;;;;;4990662;28;20096;-65
2022/07/03 11:04:56;;;;;;;5.90;5.60;;;;;;;;;;4989767;28;20060;-65
2022/07/03 11:07:21;;;;;;;;;;;;;;;;;;4991171;28;20026;-65
2022/07/03 11:09:47;;;;;;;5.35;5.05;;;;;;;;;;4989569;28;19926;-65
2022/07/03 11:12:12;;;;;;;5.32;4.90;;;;;;;;;;4989991;28;20141;-66
2022/07/03 11:14:37;;;;;;;5.53;5.15;;;;;;;;;;4991594;28;20068;-65
2022/07/03 11:17:21;;;;;;;6.18;5.72;;;;;;;;;;4980628;28;20030;-66
2022/07/03 11:20:23;;;;;;;5.33;5.03;;;;;;;;;;4991600;28;20484;-66
2022/07/03 11:22:36;;;;;;;4.88;4.50;;;;;;;;;;4989952;28;20624;-65
2022/07/03 11:25:02;;;;;;;5.70;5.30;;;;;;;;;;5006057;28;20033;-66
2022/07/03 11:27:29;;;;;;;5.05;4.75;;;;;;;;;;4989403;28;20476;-65
2022/07/03 11:29:56;;;;;;;4.95;4.65;;;;;;;;;;4989287;28;20034;-65
2022/07/03 11:32:40;;;;;;;2.45;2.35;;;;;;;;;;4983265;28;20022;-66
2022/07/03 11:35:05;;;;;;;2.63;2.53;;;;;;;;;;4989941;28;20543;-66
2022/07/03 11:37:30;;;;;;;3.17;2.97;;;;;;;;;;4988078;28;20037;-65
2022/07/03 11:39:57;;;;;;;2.95;2.85;;;;;;;;;;4989966;28;20049;-66
2022/07/03 11:42:22;;;;;;;3.65;3.38;;;;;;;;;;4990382;28;20042;-65
2022/07/03 11:44:48;;;;;;;3.22;2.60;;;;;;;;;;4991948;28;20041;-65
2022/07/03 11:47:14;;;;;;;2.90;2.80;;;;;;;;;;5003585;28;20479;-65
2022/07/03 11:49:47;;;;;;;2.72;2.63;;;;;;;;;;4980353;28;20030;-66
2022/07/03 11:52:12;;;;;;;2.88;2.78;;;;;;;;;;4989894;28;20045;-66
2022/07/03 11:54:50;;;;;;;2.90;2.80;;;;;;;;;;4989633;28;20035;-65
2022/07/03 11:57:16;;;;;;;2.88;2.78;;;;;;;;;;4992031;28;20070;-66
2022/07/03 11:59:41;;;;;;;2.47;2.38;;;;;;;;;;4989618;28;20109;-66
2022/07/03 12:02:07;;;;;;;3.28;2.80;;;;;;;;;;4988206;28;20406;-66
2022/07/03 12:04:32;;;;;;;2.95;2.85;;;;;;;;;;4982728;28;20160;-65
2022/07/03 12:06:58;;;;;;;2.55;2.45;;;;;;;;;;4988597;28;20480;-65
2022/07/03 12:09:26;;;;;;;2.60;2.50;;;;;;;;;;4989765;28;20082;-66
2022/07/03 12:12:01;;;;;;;2.53;2.33;;;;;;;;;;4989631;28;20033;-65
2022/07/03 12:14:43;;;;;;;7.05;2.67;;;;;;;;;;4988536;28;20065;-66
2022/07/03 12:17:11;;;;;;;2.65;2.45;;;;;;;;;;4989069;28;20731;-66
2022/07/03 12:19:37;;;;;;;2.67;2.58;;;;;;;;;;4989193;28;20153;-66
2022/07/03 12:22:02;;;;;;;2.97;2.88;;;;;;;;;;4989612;28;20038;-66
2022/07/03 12:24:27;;;;;;;2.55;2.45;;;;;;;;;;4989378;28;20033;-66
2022/07/03 12:26:53;;;;;;;3.33;3.10;;;;;;;;;;4990070;28;20105;-66
2022/07/03 12:29:18;;;;;;;2.58;2.47;;;;;;;;;;4989607;28;20041;-66
2022/07/03 12:31:45;;;;;;;3.13;2.67;;;;;;;;;;4990678;28;20517;-66
2022/07/03 12:34:10;;;;;;;9.30;3.65;;;;;;;;;;4989991;28;20750;-66
2022/07/03 12:36:36;;;;;;;2.42;2.30;;;;;;;;;;4988939;28;20535;-67
2022/07/03 12:39:01;;;;;;;2.67;2.58;;;;;;;;;;4988993;28;20037;-66
2022/07/03 12:41:27;;;;;;;2.92;2.78;;;;;;;;;;4987815;28;20042;-66
2022/07/03 12:43:52;;;;;;;2.50;2.40;;;;;;;;;;4988346;28;20033;-67
2022/07/03 12:46:20;;;;;;;2.60;2.40;;;;;;;;;;4987794;28;20027;-66
2022/07/03 12:48:46;;;;;;;2.58;2.47;;;;;;;;;;4988716;28;20496;-66
2022/07/03 12:51:11;;;;;;;2.95;2.85;;;;;;;;;;4987994;28;20036;-67
2022/07/03 12:53:36;;;;;;;2.50;2.40;;;;;;;;;;4988373;28;20110;-66
2022/07/03 12:56:06;;;;;;;3.28;2.80;;;;;;;;;;4989825;28;20081;-65
2022/07/03 13:01:25;;;;;;;3.30;3.08;;;;;;;;;;4988650;28;20058;-67
2022/07/03 13:03:50;;;;;;;2.53;2.40;;;;;;;;;;4988879;28;20031;-65
2022/07/03 13:06:15;;;;;;;3.75;2.75;;;;;;;;;;4987017;28;20027;-65
2022/07/03 13:08:55;;;;;;;2.70;2.50;;;;;;;;;;4988762;28;20548;-66
2022/07/03 13:11:33;;;;;;;3.17;2.10;;;;;;;;;;4988972;28;20038;-66
2022/07/03 13:14:05;;;;;;;3.58;3.28;;;;;;;;;;4988396;28;20026;-65
2022/07/03 13:16:35;;;;;;;2.88;2.78;;;;;;;;;;4988290;28;20124;-65
2022/07/03 13:19:02;;;;;;;2.83;2.72;;;;;;;;;;4988056;28;20404;-66
2022/07/03 13:21:28;;;;;;;3.13;2.83;;;;;;;;;;4989319;28;20045;-67
2022/07/03 13:23:53;;;;;;;2.50;2.40;;;;;;;;;;4987968;28;20017;-66
2022/07/03 13:26:18;;;;;;;2.67;2.53;;;;;;;;;;4989341;28;20469;-65
2022/07/03 13:28:43;;;;;;;2.80;2.70;;;;;;;;;;4988185;28;20571;-66
2022/07/03 13:31:09;;;;;;;3.03;2.92;;;;;;;;;;4987681;28;20038;-65
2022/07/03 13:33:34;;;;;;;2.72;2.53;;;;;;;;;;4987185;28;20116;-66
2022/07/03 13:35:59;;;;;;;3.20;2.92;;;;;;;;;;4988787;28;20685;-66
2022/07/03 13:38:24;;;;;;;3.17;2.97;;;;;;;;;;4990169;28;20033;-65
2022/07/03 13:40:50;;;;;;;2.63;2.53;;;;;;;;;;4988079;28;20123;-65
2022/07/03 13:43:15;;;;;;;2.90;2.80;;;;;;;;;;4986345;28;20178;-65
2022/07/03 13:45:40;;;;;;;2.47;2.42;;;;;;;;;;4987297;28;20038;-65
2022/07/03 13:48:06;;;;;;;2.70;2.60;;;;;;;;;;4987139;28;20546;-65
2022/07/03 13:50:31;;;;;;;2.60;2.50;;;;;;;;;;4988610;28;20034;-65
2022/07/03 13:52:56;;;;;;;2.35;2.35;;;;;;;;;;4986900;28;20603;-65
2022/07/03 13:55:22;;;;;;;2.17;2.08;;;;;;;;;;4989746;28;20026;-65
2022/07/03 13:57:48;;;;;;;2.42;2.33;;;;;;;;;;4991118;28;20033;-65
2022/07/03 14:00:13;;;;;;;2.78;2.58;;;;;;;;;;4991003;28;20027;-65
2022/07/03 14:02:39;;;;;;;3.15;3.00;;;;;;;;;;4992393;28;20085;-65
2022/07/03 14:05:04;;;;;;;3.28;3.03;;;;;;;;;;4992083;28;20487;-65
2022/07/03 14:07:30;;;;;;;2.42;2.33;;;;;;;;;;4993712;28;20144;-65
2022/07/03 14:09:55;;;;;;;3.10;2.90;;;;;;;;;;4990885;28;20058;-65
2022/07/03 14:12:20;;;;;;;2.88;2.78;;;;;;;;;;4992638;28;20034;-65
2022/07/03 14:14:45;;;;;;;2.47;2.42;;;;;;;;;;4991704;28;20476;-65
2022/07/03 14:17:11;;;;;;;2.67;2.58;;;;;;;;;;4991780;28;20492;-65
2022/07/03 14:19:36;;;;;;;2.47;2.38;;;;;;;;;;5007728;28;20412;-66
2022/07/03 14:22:01;;;;;;;2.78;2.67;;;;;;;;;;4992172;28;20451;-66
2022/07/03 14:24:26;;;;;;;3.58;3.38;;;;;;;;;;4992021;28;20467;-66
2022/07/03 14:32:29;;;;;;;3.15;3.00;;;;;;;;;;4992070;28;20463;-65
2022/07/03 14:34:54;;;;;;;3.47;3.17;;;;;;;;;;4990618;28;20041;-64
2022/07/03 14:37:19;;;;;;;2.88;2.78;;;;;;;;;;4991134;28;20448;-65
2022/07/03 14:39:45;;;;;;;2.92;2.83;;;;;;;;;;4990716;28;20097;-65
2022/07/03 14:42:10;;;;;;;3.25;3.05;;;;;;;;;;4991278;28;20037;-65
2022/07/03 14:44:36;;;;;;;3.40;3.28;;;;;;;;;;4991747;28;20029;-65
2022/07/03 14:47:01;;;;;;;3.58;3.47;;;;;;;;;;4989598;28;20754;-66
2022/07/03 14:49:26;;;;;;;2.80;2.67;;;;;;;;;;4990039;28;20022;-66
2022/07/03 14:51:52;;;;;;;2.65;2.55;;;;;;;;;;4990688;28;20425;-66
2022/07/03 14:54:19;;;;;;;3.35;3.20;;;;;;;;;;4989533;28;20185;-66
2022/07/03 14:56:50;;;;;;;2.65;2.55;;;;;;;;;;4991990;28;20022;-66
2022/07/03 14:59:18;;;;;;;3.63;3.45;;;;;;;;;;4991632;28;20042;-66
2022/07/03 15:01:47;;;;;;;3.17;3.05;;;;;;;;;;4990687;28;20048;-65
2022/07/03 15:04:19;;;;;;;2.95;2.85;;;;;;;;;;4990732;28;20028;-64